createdAt,value
2017-10-09T00:01:05.913Z,14.08
2017-10-09T00:03:33.340Z,14.13
2017-10-09T00:06:00.746Z,14.24
2017-10-09T00:08:28.188Z,14.28
2017-10-09T00:10:55.602Z,14.11
2017-10-09T00:13:23.040Z,13.99
2017-10-09T00:15:50.429Z,13.89
2017-10-09T00:18:17.860Z,13.81
2017-10-09T00:20:45.330Z,13.78
2017-10-09T00:23:12.727Z,13.76
2017-10-09T00:25:40.170Z,13.85
2017-10-09T00:28:07.565Z,13.97
2017-10-09T00:30:34.980Z,14.08
2017-10-09T00:33:02.368Z,13.95
2017-10-09T00:35:29.797Z,13.79
2017-10-09T00:37:57.208Z,13.71
2017-10-09T00:40:24.609Z,13.72
2017-10-09T00:42:52.032Z,13.74
2017-10-09T00:45:19.437Z,13.83
2017-10-09T00:47:46.871Z,13.88
2017-10-09T00:50:14.256Z,13.85
2017-10-09T00:52:41.699Z,13.80
2017-10-09T00:55:09.115Z,13.94
2017-10-09T00:57:36.525Z,14.01
2017-10-09T01:00:03.930Z,14.11
2017-10-09T01:02:31.352Z,14.08
2017-10-09T01:04:58.772Z,14.12
2017-10-09T01:07:26.209Z,14.14
2017-10-09T01:09:53.663Z,14.17
2017-10-09T01:12:21.058Z,14.03
2017-10-09T01:14:48.489Z,14.00
2017-10-09T01:17:15.884Z,13.90
2017-10-09T01:19:43.324Z,13.80
2017-10-09T01:22:10.725Z,13.70
2017-10-09T01:24:38.172Z,13.57
2017-10-09T01:27:05.581Z,13.60
2017-10-09T01:29:32.995Z,13.57
2017-10-09T01:32:00.414Z,13.59
2017-10-09T01:34:27.848Z,13.63
2017-10-09T01:36:55.294Z,13.62
2017-10-09T01:39:22.694Z,13.61
2017-10-09T01:41:50.122Z,13.53
2017-10-09T01:44:17.532Z,13.53
2017-10-09T01:46:44.952Z,13.59
2017-10-09T01:49:13.464Z,13.69
2017-10-09T01:51:40.861Z,13.77
2017-10-09T01:54:08.291Z,13.77
2017-10-09T01:56:35.694Z,13.68
2017-10-09T01:59:03.126Z,13.65
2017-10-09T02:01:30.534Z,13.60
2017-10-09T02:03:57.953Z,13.61
2017-10-09T02:06:25.680Z,13.61
2017-10-09T02:08:53.182Z,13.69
2017-10-09T02:11:20.573Z,13.74
2017-10-09T02:13:47.971Z,13.75
2017-10-09T02:16:15.427Z,13.76
2017-10-09T02:18:42.823Z,13.64
2017-10-09T02:21:10.248Z,13.51
2017-10-09T02:23:37.657Z,13.55
2017-10-09T02:26:05.095Z,13.66
2017-10-09T02:28:32.504Z,13.72
2017-10-09T02:30:59.949Z,13.74
2017-10-09T02:33:27.344Z,13.70
2017-10-09T02:35:54.785Z,13.79
2017-10-09T02:38:22.218Z,13.68
2017-10-09T02:40:49.623Z,13.59
2017-10-09T02:43:17.041Z,13.63
2017-10-09T02:45:44.448Z,13.66
2017-10-09T02:48:11.872Z,13.71
2017-10-09T02:50:39.611Z,13.77
2017-10-09T02:53:11.478Z,13.62
2017-10-09T02:55:38.957Z,13.63
2017-10-09T02:58:06.361Z,13.68
2017-10-09T03:00:33.797Z,13.77
2017-10-09T03:03:01.206Z,13.71
2017-10-09T03:05:28.642Z,13.67
2017-10-09T03:07:56.083Z,13.68
2017-10-09T03:10:23.497Z,13.72
2017-10-09T03:12:50.934Z,13.74
2017-10-09T03:15:18.347Z,13.75
2017-10-09T03:17:45.776Z,13.76
2017-10-09T03:20:13.197Z,13.67
2017-10-09T03:22:42.332Z,13.47
2017-10-09T03:25:14.146Z,13.36
2017-10-09T03:27:42.960Z,13.31
2017-10-09T03:30:11.264Z,13.33
2017-10-09T03:32:38.684Z,13.33
2017-10-09T03:35:06.122Z,13.29
2017-10-09T03:37:33.549Z,13.27
2017-10-09T03:40:00.961Z,13.26
2017-10-09T03:42:28.377Z,13.24
2017-10-09T03:44:55.801Z,13.33
2017-10-09T03:47:23.207Z,13.40
2017-10-09T03:49:50.647Z,13.46
2017-10-09T03:52:18.031Z,13.47
2017-10-09T03:54:45.468Z,13.52
2017-10-09T03:57:12.852Z,13.52
2017-10-09T03:59:40.280Z,13.51
2017-10-09T04:02:07.673Z,13.51
2017-10-09T04:04:35.107Z,13.51
2017-10-09T04:07:02.528Z,13.51
2017-10-09T04:09:29.924Z,13.49
2017-10-09T04:11:57.357Z,13.54
2017-10-09T04:14:24.753Z,13.49
2017-10-09T04:16:52.177Z,13.51
2017-10-09T04:19:19.575Z,13.51
2017-10-09T04:21:46.999Z,13.54
2017-10-09T04:24:14.395Z,13.59
2017-10-09T04:26:41.824Z,13.56
2017-10-09T04:29:09.820Z,13.52
2017-10-09T04:31:37.851Z,13.49
2017-10-09T04:34:06.439Z,13.42
2017-10-09T04:36:33.843Z,13.45
2017-10-09T04:39:01.281Z,13.44
2017-10-09T04:41:28.705Z,13.46
2017-10-09T04:43:56.142Z,13.41
2017-10-09T04:46:23.547Z,13.39
2017-10-09T04:48:50.964Z,13.40
2017-10-09T04:51:18.389Z,13.38
2017-10-09T04:53:45.870Z,13.33
2017-10-09T04:56:13.269Z,13.32
2017-10-09T04:58:40.713Z,13.35
2017-10-09T05:01:08.136Z,13.34
2017-10-09T05:03:35.536Z,13.29
2017-10-09T05:06:02.957Z,13.30
2017-10-09T05:08:30.405Z,13.32
2017-10-09T05:10:57.828Z,13.39
2017-10-09T05:13:25.255Z,13.46
2017-10-09T05:15:52.685Z,13.40
2017-10-09T05:18:20.104Z,13.39
2017-10-09T05:20:47.556Z,13.31
2017-10-09T05:23:15.145Z,13.29
2017-10-09T05:25:42.584Z,13.27
2017-10-09T05:28:10.037Z,13.22
2017-10-09T05:30:37.909Z,13.18
2017-10-09T05:33:05.317Z,13.15
2017-10-09T05:35:32.789Z,13.11
2017-10-09T05:38:00.208Z,13.13
2017-10-09T05:40:27.658Z,13.18
2017-10-09T05:42:55.091Z,13.14
2017-10-09T05:45:22.506Z,13.13
2017-10-09T05:47:50.004Z,13.16
2017-10-09T05:50:17.561Z,13.15
2017-10-09T05:52:44.960Z,13.15
2017-10-09T05:55:12.382Z,13.20
2017-10-09T05:57:39.870Z,13.35
2017-10-09T06:00:09.105Z,13.33
2017-10-09T06:02:37.063Z,13.25
2017-10-09T06:05:05.194Z,13.22
2017-10-09T06:07:32.649Z,13.25
2017-10-09T06:10:00.070Z,13.24
2017-10-09T06:12:27.504Z,13.20
2017-10-09T06:14:54.980Z,13.20
2017-10-09T06:17:22.867Z,13.19
2017-10-09T06:19:50.264Z,13.13
2017-10-09T06:22:17.764Z,13.14
2017-10-09T06:24:45.176Z,13.16
2017-10-09T06:27:12.613Z,13.18
2017-10-09T06:29:40.038Z,13.14
2017-10-09T06:32:07.455Z,13.16
2017-10-09T06:34:34.884Z,13.13
2017-10-09T06:37:02.372Z,13.11
2017-10-09T06:39:29.791Z,13.10
2017-10-09T06:41:57.212Z,13.09
2017-10-09T06:44:24.651Z,13.06
2017-10-09T06:46:52.087Z,13.18
2017-10-09T06:49:20.440Z,13.21
2017-10-09T06:51:47.842Z,13.21
2017-10-09T06:54:15.872Z,13.18
2017-10-09T06:56:43.344Z,13.19
2017-10-09T06:59:10.886Z,13.12
2017-10-09T07:01:38.368Z,13.17
2017-10-09T07:04:05.794Z,13.20
2017-10-09T07:06:33.264Z,13.12
2017-10-09T07:09:00.688Z,13.08
2017-10-09T07:11:28.700Z,13.13
2017-10-09T07:13:56.445Z,13.17
2017-10-09T07:16:23.917Z,13.27
2017-10-09T07:18:51.365Z,13.33
2017-10-09T07:21:18.961Z,13.38
2017-10-09T07:23:46.420Z,13.43
2017-10-09T07:26:13.896Z,13.38
2017-10-09T07:28:41.393Z,13.43
2017-10-09T07:31:08.794Z,13.43
2017-10-09T07:33:36.225Z,13.51
2017-10-09T07:36:03.699Z,13.61
2017-10-09T07:38:31.141Z,13.66
2017-10-09T07:40:59.570Z,13.79
2017-10-09T07:43:27.000Z,13.91
2017-10-09T07:45:54.445Z,13.85
2017-10-09T07:48:21.937Z,13.91
2017-10-09T07:50:49.346Z,14.05
2017-10-09T07:53:16.777Z,14.11
2017-10-09T07:55:44.231Z,14.10
2017-10-09T07:58:11.619Z,14.17
2017-10-09T08:00:39.057Z,14.27
2017-10-09T08:03:06.493Z,14.28
2017-10-09T08:05:33.926Z,14.32
2017-10-09T08:08:01.400Z,14.33
2017-10-09T08:10:28.843Z,14.26
2017-10-09T08:12:56.277Z,14.18
2017-10-09T08:15:24.522Z,14.19
2017-10-09T08:17:52.036Z,14.34
2017-10-09T08:20:19.485Z,14.41
2017-10-09T08:22:46.957Z,14.22
2017-10-09T08:25:14.405Z,14.26
2017-10-09T08:27:41.829Z,14.31
2017-10-09T08:30:09.864Z,14.29
2017-10-09T08:32:37.311Z,14.37
2017-10-09T08:35:04.750Z,14.51
2017-10-09T08:37:32.220Z,14.68
2017-10-09T08:45:05.276Z,14.74
2017-10-09T08:47:32.765Z,14.70
2017-10-09T08:50:00.262Z,14.77
2017-10-09T08:52:27.716Z,14.78
2017-10-09T08:54:55.212Z,14.83
2017-10-09T08:57:22.689Z,14.79
2017-10-09T09:02:25.975Z,14.89
2017-10-09T09:07:26.369Z,15.12
2017-10-09T09:14:59.303Z,15.39
2017-10-09T09:22:32.368Z,15.45
2017-10-09T09:27:32.567Z,15.43
2017-10-09T09:30:00.115Z,15.47
2017-10-09T09:32:27.636Z,15.43
2017-10-09T09:40:00.707Z,15.69
2017-10-09T09:42:28.198Z,15.79
2017-10-09T09:44:55.694Z,15.88
2017-10-09T09:47:23.182Z,15.99
2017-10-09T09:49:50.636Z,16.08
2017-10-09T09:52:18.125Z,16.00
2017-10-09T09:54:45.597Z,16.05
2017-10-09T09:57:13.089Z,15.97
2017-10-09T09:59:41.440Z,16.04
2017-10-09T10:04:42.568Z,16.16
2017-10-09T10:07:10.026Z,16.19
2017-10-09T10:09:37.447Z,16.36
2017-10-09T10:12:04.848Z,16.36
2017-10-09T10:14:32.283Z,16.40
2017-10-09T10:16:59.696Z,16.26
2017-10-09T10:19:27.159Z,16.28
2017-10-09T10:21:54.555Z,16.34
2017-10-09T10:24:22.021Z,16.48
2017-10-09T10:26:49.420Z,16.47
2017-10-09T10:29:16.845Z,16.47
2017-10-09T10:31:44.274Z,16.54
2017-10-09T10:34:11.772Z,16.55
2017-10-09T10:36:39.184Z,16.51
2017-10-09T10:39:06.596Z,16.46
2017-10-09T10:41:34.027Z,16.31
2017-10-09T10:44:01.774Z,16.29
2017-10-09T10:46:30.401Z,16.37
2017-10-09T10:48:57.809Z,16.43
2017-10-09T10:51:25.249Z,16.42
2017-10-09T10:53:52.698Z,16.56
2017-10-09T10:56:20.153Z,16.62
2017-10-09T10:58:47.538Z,16.71
2017-10-09T11:01:14.976Z,16.72
2017-10-09T11:03:42.391Z,16.70
2017-10-09T11:06:09.895Z,16.70
2017-10-09T11:08:37.339Z,16.75
2017-10-09T11:11:04.779Z,16.65
2017-10-09T11:13:32.233Z,16.76
2017-10-09T11:15:59.734Z,16.78
2017-10-09T11:18:27.160Z,16.84
2017-10-09T11:20:54.569Z,16.94
2017-10-09T11:23:22.681Z,16.95
2017-10-09T11:25:50.129Z,17.05
2017-10-09T11:28:17.537Z,17.04
2017-10-09T11:30:44.969Z,17.19
2017-10-09T11:33:12.379Z,17.40
2017-10-09T11:35:39.833Z,17.40
2017-10-09T11:38:07.622Z,17.41
2017-10-09T11:40:35.072Z,17.28
2017-10-09T11:43:02.476Z,17.35
2017-10-09T11:45:29.910Z,17.38
2017-10-09T11:47:57.472Z,17.38
2017-10-09T11:50:24.957Z,17.50
2017-10-09T11:52:52.355Z,17.50
2017-10-09T11:55:19.781Z,17.38
2017-10-09T11:57:48.012Z,17.34
2017-10-09T12:00:15.399Z,17.34
2017-10-09T12:02:42.852Z,17.46
2017-10-09T12:05:10.276Z,17.35
2017-10-09T12:07:37.734Z,17.40
2017-10-09T12:10:05.156Z,17.32
2017-10-09T12:12:32.584Z,17.46
2017-10-09T12:15:00.115Z,17.52
2017-10-09T12:17:27.549Z,17.66
2017-10-09T12:19:54.945Z,17.67
2017-10-09T12:22:22.429Z,17.80
2017-10-09T12:24:49.844Z,17.76
2017-10-09T12:27:17.295Z,17.89
2017-10-09T12:29:44.710Z,17.92
2017-10-09T12:32:12.178Z,17.91
2017-10-09T12:34:39.637Z,18.01
2017-10-09T12:37:07.050Z,18.04
2017-10-09T12:39:34.472Z,18.06
2017-10-09T12:42:01.930Z,18.24
2017-10-09T12:44:29.333Z,18.39
2017-10-09T12:46:57.544Z,18.56
2017-10-09T12:49:25.272Z,18.63
2017-10-09T12:51:52.680Z,18.50
2017-10-09T12:54:20.138Z,18.44
2017-10-09T12:56:47.584Z,18.59
2017-10-09T12:59:14.989Z,18.72
2017-10-09T13:01:42.386Z,18.51
2017-10-09T13:04:09.861Z,18.43
2017-10-09T13:06:37.348Z,18.57
2017-10-09T13:09:04.817Z,18.66
2017-10-09T13:11:32.279Z,18.52
2017-10-09T13:13:59.696Z,18.50
2017-10-09T13:16:27.136Z,18.32
2017-10-09T13:18:55.185Z,18.25
2017-10-09T13:21:22.590Z,18.32
2017-10-09T13:23:50.106Z,18.43
2017-10-09T13:26:17.600Z,18.46
2017-10-09T13:28:45.022Z,18.47
2017-10-09T13:31:12.462Z,18.34
2017-10-09T13:33:39.868Z,18.10
2017-10-09T13:36:07.289Z,18.12
2017-10-09T13:38:34.775Z,18.20
2017-10-09T13:41:02.242Z,18.31
2017-10-09T13:43:29.674Z,18.34
2017-10-09T13:51:02.680Z,18.37
2017-10-09T13:53:30.169Z,18.47
2017-10-09T13:58:30.462Z,18.30
2017-10-09T14:03:30.768Z,18.29
2017-10-09T14:18:44.000Z,17.75
2017-10-09T14:21:11.508Z,17.57
2017-10-09T14:23:38.990Z,17.55
2017-10-09T14:28:39.162Z,17.68
2017-10-09T14:31:06.773Z,17.69
2017-10-09T14:40:57.018Z,17.60
2017-10-09T14:43:24.554Z,17.57
2017-10-09T14:45:52.064Z,17.48
2017-10-09T14:48:19.584Z,17.39
2017-10-09T14:50:47.115Z,17.26
2017-10-09T14:53:14.637Z,17.32
2017-10-09T14:55:42.089Z,17.36
2017-10-09T14:58:09.568Z,17.35
2017-10-09T15:00:37.098Z,17.29
2017-10-09T15:03:04.619Z,17.32
2017-10-09T15:05:32.139Z,17.37
2017-10-09T15:07:59.611Z,17.34
2017-10-09T15:10:27.126Z,17.17
2017-10-09T15:12:54.581Z,17.09
2017-10-09T15:15:22.082Z,17.08
2017-10-09T15:17:49.533Z,17.16
2017-10-09T15:20:17.022Z,17.13
2017-10-09T15:22:44.514Z,17.15
2017-10-09T15:25:12.061Z,17.15
2017-10-09T15:27:39.546Z,17.06
2017-10-09T15:30:07.113Z,17.09
2017-10-09T15:32:34.647Z,17.03
2017-10-09T15:35:02.175Z,17.04
2017-10-09T15:37:29.686Z,17.07
2017-10-09T15:39:57.142Z,17.17
2017-10-09T15:42:24.619Z,17.14
2017-10-09T15:44:52.099Z,17.16
2017-10-09T15:47:19.556Z,17.17
2017-10-09T15:49:47.053Z,17.15
2017-10-09T15:52:14.514Z,17.11
2017-10-09T15:54:42.155Z,17.09
2017-10-09T15:57:09.601Z,17.00
2017-10-09T15:59:37.066Z,16.98
2017-10-09T16:02:04.612Z,17.04
2017-10-09T16:04:32.105Z,17.01
2017-10-09T16:06:59.705Z,17.00
2017-10-09T16:09:27.212Z,17.03
2017-10-09T16:11:54.671Z,17.11
2017-10-09T16:14:22.194Z,16.99
2017-10-09T16:16:49.686Z,16.87
2017-10-09T16:19:17.163Z,16.92
2017-10-09T16:21:44.655Z,17.01
2017-10-09T16:24:12.163Z,16.95
2017-10-09T16:26:39.638Z,16.84
2017-10-09T16:29:07.158Z,16.82
2017-10-09T16:31:34.712Z,16.83
2017-10-09T16:34:02.241Z,16.76
2017-10-09T16:36:29.822Z,16.78
2017-10-09T16:38:57.293Z,16.73
2017-10-09T16:41:25.020Z,16.66
2017-10-09T16:43:52.758Z,16.59
2017-10-09T16:46:20.291Z,16.58
2017-10-09T16:48:47.759Z,16.51
2017-10-09T16:51:15.289Z,16.47
2017-10-09T16:53:42.748Z,16.45
2017-10-09T16:56:10.248Z,16.50
2017-10-09T16:58:37.762Z,16.55
2017-10-09T17:01:05.239Z,16.52
2017-10-09T17:03:32.702Z,16.55
2017-10-09T17:06:00.230Z,16.61
2017-10-09T17:08:27.706Z,16.57
2017-10-09T17:10:55.201Z,16.57
2017-10-09T17:13:22.697Z,16.55
2017-10-09T17:15:50.166Z,16.51
2017-10-09T17:18:17.650Z,16.47
2017-10-09T17:20:45.138Z,16.47
2017-10-09T17:23:12.637Z,16.44
2017-10-09T17:25:40.095Z,16.40
2017-10-09T17:28:07.630Z,16.36
2017-10-09T17:30:35.122Z,16.28
2017-10-09T17:33:02.574Z,16.21
2017-10-09T17:35:30.093Z,16.26
2017-10-09T17:37:57.596Z,16.28
2017-10-09T17:40:25.093Z,16.33
2017-10-09T17:42:52.572Z,16.30
2017-10-09T17:45:20.058Z,16.22
2017-10-09T17:47:47.517Z,16.14
2017-10-09T17:50:15.001Z,16.12
2017-10-09T17:52:42.483Z,16.11
2017-10-09T17:55:09.958Z,16.09
2017-10-09T17:57:37.454Z,16.05
2017-10-09T18:00:04.922Z,16.02
2017-10-09T18:02:32.431Z,16.03
2017-10-09T18:05:00.138Z,16.01
2017-10-09T18:07:27.630Z,16.05
2017-10-09T18:09:55.090Z,16.11
2017-10-09T18:12:22.602Z,16.06
2017-10-09T18:14:50.561Z,15.95
2017-10-09T18:17:18.067Z,15.93
2017-10-09T18:19:45.564Z,15.94
2017-10-09T18:22:13.025Z,15.93
2017-10-09T18:24:40.490Z,15.98
2017-10-09T18:27:07.960Z,15.99
2017-10-09T18:29:35.476Z,15.97
2017-10-09T18:32:02.920Z,15.87
2017-10-09T18:34:30.423Z,15.83
2017-10-09T18:36:57.869Z,15.87
2017-10-09T18:39:25.583Z,15.90
2017-10-09T18:41:53.033Z,15.82
2017-10-09T18:44:20.521Z,15.79
2017-10-09T18:46:47.982Z,15.82
2017-10-09T18:49:15.468Z,15.78
2017-10-09T18:51:42.950Z,15.69
2017-10-09T18:54:10.447Z,15.66
2017-10-09T18:56:37.930Z,15.59
2017-10-09T18:59:05.370Z,15.51
2017-10-09T19:01:32.898Z,15.49
2017-10-09T19:04:00.361Z,15.49
2017-10-09T19:06:27.829Z,15.47
2017-10-09T19:08:55.318Z,15.41
2017-10-09T19:11:22.778Z,15.38
2017-10-09T19:13:50.313Z,15.39
2017-10-09T19:16:17.785Z,15.36
2017-10-09T19:18:45.251Z,15.34
2017-10-09T19:21:12.733Z,15.35
2017-10-09T19:23:40.197Z,15.32
2017-10-09T19:26:07.669Z,15.32
2017-10-09T19:28:35.128Z,15.18
2017-10-09T19:31:02.643Z,15.37
2017-10-09T19:33:30.171Z,15.35
2017-10-09T19:35:57.674Z,15.35
2017-10-09T19:38:25.214Z,15.36
2017-10-09T19:40:52.689Z,15.41
2017-10-09T19:43:20.232Z,15.43
2017-10-09T19:45:47.707Z,15.44
2017-10-09T19:48:15.192Z,15.53
2017-10-09T19:50:42.648Z,15.48
2017-10-09T19:53:10.154Z,15.41
2017-10-09T19:55:37.632Z,15.37
2017-10-09T19:58:05.149Z,15.35
2017-10-09T20:00:32.636Z,15.36
2017-10-09T20:03:00.103Z,15.44
2017-10-09T20:05:27.589Z,15.34
2017-10-09T20:07:55.210Z,15.22
2017-10-09T20:10:22.742Z,15.15
2017-10-09T20:12:50.349Z,15.11
2017-10-09T20:15:17.841Z,15.15
2017-10-09T20:17:46.503Z,15.14
2017-10-09T20:20:14.077Z,15.12
2017-10-09T20:22:41.568Z,15.15
2017-10-09T20:25:09.101Z,15.20
2017-10-09T20:27:36.883Z,15.32
2017-10-09T20:30:04.403Z,15.30
2017-10-09T20:32:31.892Z,15.31
2017-10-09T20:34:59.420Z,15.34
2017-10-09T20:37:27.746Z,15.33
2017-10-09T20:39:55.212Z,15.34
2017-10-09T20:42:22.689Z,15.41
2017-10-09T20:44:50.140Z,15.45
2017-10-09T20:47:17.654Z,15.42
2017-10-09T20:49:45.106Z,15.38
2017-10-09T20:52:12.608Z,15.38
2017-10-09T20:54:40.074Z,15.32
2017-10-09T20:57:07.525Z,15.33
2017-10-09T20:59:35.006Z,15.38
2017-10-09T21:02:02.470Z,15.31
2017-10-09T21:04:29.976Z,15.35
2017-10-09T21:06:57.445Z,15.36
2017-10-09T21:11:51.693Z,15.32
2017-10-09T21:14:19.181Z,15.34
2017-10-09T21:16:46.630Z,15.34
2017-10-09T21:19:14.068Z,15.37
2017-10-09T21:21:41.553Z,15.38
2017-10-09T21:24:09.017Z,15.46
2017-10-09T21:26:36.501Z,15.53
2017-10-09T21:29:03.961Z,15.44
2017-10-09T21:31:31.438Z,15.35
2017-10-09T21:33:58.902Z,15.40
2017-10-09T21:36:26.378Z,15.36
2017-10-09T21:38:53.835Z,15.20
2017-10-09T21:41:21.345Z,15.23
2017-10-09T21:43:48.864Z,15.19
2017-10-09T21:46:16.329Z,15.14
2017-10-09T21:48:43.818Z,15.17
2017-10-09T21:51:11.269Z,15.19
2017-10-09T21:53:38.751Z,15.25
2017-10-09T21:56:06.242Z,15.22
2017-10-09T21:58:33.710Z,15.16
2017-10-09T22:01:01.161Z,15.15
2017-10-09T22:03:28.634Z,15.21
2017-10-09T22:05:56.141Z,15.30
2017-10-09T22:08:23.597Z,15.27
2017-10-09T22:10:51.072Z,15.21
2017-10-09T22:13:18.522Z,15.22
2017-10-09T22:15:46.015Z,15.17
2017-10-09T22:18:13.468Z,15.27
2017-10-09T22:20:40.965Z,15.26
2017-10-09T22:23:08.433Z,15.19
2017-10-09T22:25:35.922Z,15.20
2017-10-09T22:28:03.397Z,15.06
2017-10-09T22:30:30.890Z,15.03
2017-10-09T22:32:58.857Z,15.07
2017-10-09T22:35:26.333Z,15.04
2017-10-09T22:37:53.834Z,15.06
2017-10-09T22:40:21.865Z,15.00
2017-10-09T22:42:49.325Z,15.02
2017-10-09T22:45:16.787Z,14.97
2017-10-09T22:47:44.264Z,14.95
2017-10-09T22:50:11.721Z,15.05
2017-10-09T22:52:39.205Z,15.11
2017-10-09T22:55:06.658Z,15.04
2017-10-09T22:57:34.142Z,15.10
2017-10-09T23:00:01.594Z,15.07
2017-10-09T23:02:29.074Z,14.94
2017-10-09T23:04:56.543Z,14.92
2017-10-09T23:07:24.091Z,14.91
2017-10-09T23:09:51.585Z,14.98
2017-10-09T23:12:19.060Z,14.91
2017-10-09T23:14:46.537Z,14.90
2017-10-09T23:17:13.980Z,14.86
2017-10-09T23:19:41.469Z,14.89
2017-10-09T23:22:08.929Z,14.95
2017-10-09T23:24:36.413Z,15.02
2017-10-09T23:27:03.857Z,14.98
2017-10-09T23:29:31.334Z,15.02
2017-10-09T23:31:58.784Z,14.98
2017-10-09T23:34:26.269Z,14.96
2017-10-09T23:36:53.795Z,14.91
2017-10-09T23:39:21.327Z,14.84
2017-10-09T23:41:48.798Z,14.80
2017-10-09T23:44:16.245Z,14.78
2017-10-09T23:46:43.742Z,14.89
2017-10-09T23:49:11.211Z,14.92
2017-10-09T23:51:38.693Z,14.91
2017-10-09T23:54:06.154Z,14.85
2017-10-09T23:56:33.638Z,14.78
2017-10-09T23:59:01.097Z,14.80
